Time;durP1;ratioP1;P1;durP2;ratioP2;P2;SDS_P1;SDS_P2;PMS_P1;PMS_P2;Temp;Humidity;BMP_temperature;BMP_pressure;BME280_temperature;BME280_humidity;BME280_pressure;Samples;Min_cycle;Max_cycle;Signal;HPM_P1;HPM_P2
2023/05/27 00:01:45;;;;;;;0.50;0.40;;;10.40;99.90;;;;;;5044981;28;20302;-78
2023/05/27 00:04:12;;;;;;;0.50;0.40;;;10.30;99.90;;;;;;5045898;28;20245;-81
2023/05/27 00:06:39;;;;;;;0.50;0.40;;;10.30;99.90;;;;;;5045998;28;20202;-79
2023/05/27 00:09:07;;;;;;;0.50;0.40;;;10.30;99.90;;;;;;5044173;28;20192;-80
2023/05/27 00:11:34;;;;;;;0.50;0.47;;;10.30;99.90;;;;;;5033910;28;20227;-82
2023/05/27 00:14:01;;;;;;;0.50;0.40;;;10.30;99.90;;;;;;5034222;28;20298;-82
2023/05/27 00:16:28;;;;;;;0.50;0.40;;;10.20;99.90;;;;;;5033586;28;20199;-80
2023/05/27 00:18:55;;;;;;;0.50;0.40;;;10.20;99.90;;;;;;5025219;28;20740;-81
2023/05/27 00:21:22;;;;;;;0.65;0.65;;;10.20;99.90;;;;;;5033652;28;20215;-80
2023/05/27 00:23:52;;;;;;;0.70;0.60;;;10.10;99.90;;;;;;5033538;28;20219;-80
2023/05/27 00:26:21;;;;;;;0.50;0.40;;;10.10;99.90;;;;;;5033827;28;20210;-81
2023/05/27 00:28:48;;;;;;;0.50;0.40;;;10.10;99.90;;;;;;5033303;28;20199;-81
2023/05/27 00:31:15;;;;;;;0.50;0.40;;;10.10;99.90;;;;;;5033832;28;20230;-80
2023/05/27 00:33:43;;;;;;;0.50;0.40;;;10.00;99.90;;;;;;5033603;28;20215;-82
2023/05/27 00:36:10;;;;;;;0.50;0.40;;;10.00;99.90;;;;;;5033453;28;20202;-82
2023/05/27 00:38:37;;;;;;;0.50;0.40;;;9.90;99.90;;;;;;5033442;28;20294;-82
2023/05/27 00:41:04;;;;;;;0.50;0.40;;;9.80;99.90;;;;;;5033812;28;20211;-80
2023/05/27 00:43:33;;;;;;;0.50;0.40;;;9.80;99.90;;;;;;5044373;28;20223;-78
2023/05/27 00:46:00;;;;;;;0.73;0.73;;;9.70;99.90;;;;;;5039698;28;20203;-79
2023/05/27 00:48:27;;;;;;;0.50;0.40;;;9.60;99.90;;;;;;5047416;28;20192;-78
2023/05/27 00:50:54;;;;;;;2.05;1.95;;;9.60;99.90;;;;;;5046788;28;20200;-80
2023/05/27 00:53:21;;;;;;;0.60;0.60;;;9.50;99.90;;;;;;5034367;28;20215;-80
2023/05/27 00:55:48;;;;;;;1.23;1.10;;;9.50;99.90;;;;;;5033128;28;20206;-82
2023/05/27 00:58:15;;;;;;;1.60;1.50;;;9.50;99.90;;;;;;5033400;28;20201;-83
2023/05/27 01:00:43;;;;;;;1.52;1.45;;;9.50;99.90;;;;;;5033567;28;20253;-79
2023/05/27 01:03:10;;;;;;;0.50;0.40;;;9.50;99.90;;;;;;5033246;28;20237;-82
2023/05/27 01:05:37;;;;;;;0.50;0.40;;;9.50;99.90;;;;;;5033524;28;20238;-82
2023/05/27 01:08:12;;;;;;;0.50;0.40;;;9.40;99.90;;;;;;5032844;28;20198;-77
2023/05/27 01:10:45;;;;;;;0.50;0.40;;;9.30;99.90;;;;;;5032997;28;20582;-80
2023/05/27 01:13:18;;;;;;;3.50;1.77;;;9.30;99.90;;;;;;5033621;28;20215;-80
2023/05/27 01:15:48;;;;;;;0.60;0.60;;;9.20;99.90;;;;;;5033242;28;20621;-81
2023/05/27 01:18:18;;;;;;;0.50;0.40;;;9.20;99.90;;;;;;5033161;28;20204;-81
2023/05/27 01:20:49;;;;;;;3.22;2.85;;;9.20;99.90;;;;;;5032984;28;20199;-82
2023/05/27 01:23:18;;;;;;;0.50;0.40;;;9.20;99.90;;;;;;5033147;28;20294;-79
2023/05/27 01:25:44;;;;;;;1.58;1.50;;;9.20;99.90;;;;;;5032900;28;20214;-82
2023/05/27 01:28:11;;;;;;;0.60;0.60;;;9.10;99.90;;;;;;5033739;28;20196;-81
2023/05/27 01:30:38;;;;;;;0.70;0.60;;;9.00;99.90;;;;;;5035131;28;20641;-80
2023/05/27 01:33:09;;;;;;;0.90;0.90;;;9.00;99.90;;;;;;5037246;28;20555;-82
2023/05/27 01:35:43;;;;;;;0.50;0.40;;;8.90;99.90;;;;;;5036801;28;20199;-80
2023/05/27 01:38:15;;;;;;;0.60;0.50;;;8.90;99.90;;;;;;5037119;28;20290;-79
2023/05/27 01:40:45;;;;;;;0.50;0.40;;;8.80;99.90;;;;;;5036897;28;20211;-80
2023/05/27 01:43:14;;;;;;;0.50;0.50;;;8.80;99.90;;;;;;5036359;28;20247;-79
2023/05/27 01:45:42;;;;;;;1.40;1.30;;;8.80;99.90;;;;;;5037159;28;20636;-82
2023/05/27 01:48:09;;;;;;;0.50;0.40;;;8.80;99.90;;;;;;5036569;28;20282;-81
2023/05/27 01:50:36;;;;;;;0.50;0.40;;;8.90;99.90;;;;;;5036956;28;20203;-79
2023/05/27 01:53:04;;;;;;;0.50;0.40;;;8.80;99.90;;;;;;5036547;28;20559;-80
2023/05/27 01:55:31;;;;;;;2.35;2.25;;;8.80;99.90;;;;;;5036772;28;20196;-80
2023/05/27 01:57:59;;;;;;;0.50;0.40;;;8.70;99.90;;;;;;5036257;28;20210;-81
2023/05/27 02:00:26;;;;;;;0.50;0.40;;;8.70;99.90;;;;;;5036091;28;20294;-80
2023/05/27 02:02:53;;;;;;;0.50;0.40;;;8.70;99.90;;;;;;5036254;28;20219;-82
2023/05/27 02:05:20;;;;;;;0.50;0.40;;;8.60;99.90;;;;;;5036319;28;20704;-80
2023/05/27 02:07:47;;;;;;;1.05;0.95;;;8.60;99.90;;;;;;5036429;28;20291;-82
2023/05/27 02:10:13;;;;;;;0.77;0.77;;;8.60;99.90;;;;;;5036597;28;20200;-81
2023/05/27 02:12:40;;;;;;;0.50;0.40;;;8.50;99.90;;;;;;5035945;28;20219;-81
2023/05/27 02:15:09;;;;;;;0.50;0.50;;;8.60;99.90;;;;;;5036214;28;20663;-82
2023/05/27 02:17:37;;;;;;;0.50;0.45;;;8.50;99.90;;;;;;5036294;28;20202;-82
2023/05/27 02:20:05;;;;;;;0.50;0.40;;;8.50;99.90;;;;;;5028562;28;20204;-81
2023/05/27 02:22:32;;;;;;;0.50;0.40;;;8.40;99.90;;;;;;5036476;28;20282;-80
2023/05/27 02:24:58;;;;;;;1.13;1.13;;;8.40;99.90;;;;;;5035998;28;20203;-81
2023/05/27 02:27:25;;;;;;;0.50;0.40;;;8.40;99.90;;;;;;5036410;28;20231;-81
2023/05/27 02:29:52;;;;;;;1.05;1.05;;;8.40;99.90;;;;;;5036136;28;20721;-82
2023/05/27 02:32:20;;;;;;;1.13;1.02;;;8.40;99.90;;;;;;5035786;28;20224;-80
2023/05/27 02:34:47;;;;;;;0.50;0.50;;;8.40;99.90;;;;;;5035745;28;20709;-80
2023/05/27 02:37:14;;;;;;;0.50;0.40;;;8.40;99.90;;;;;;5035609;28;20678;-81
2023/05/27 02:39:41;;;;;;;0.95;0.93;;;8.30;99.90;;;;;;5035707;28;20294;-81
2023/05/27 02:42:08;;;;;;;0.63;0.63;;;8.20;99.90;;;;;;5034937;28;20242;-80
2023/05/27 02:44:35;;;;;;;0.80;0.80;;;8.30;99.90;;;;;;5035573;28;20578;-81
2023/05/27 02:47:02;;;;;;;0.50;0.40;;;8.30;99.90;;;;;;5035497;28;20195;-81
2023/05/27 02:49:30;;;;;;;0.50;0.40;;;8.20;99.90;;;;;;5036095;28;20671;-81
2023/05/27 02:51:57;;;;;;;8.52;2.75;;;8.10;99.90;;;;;;5035501;28;20199;-81
2023/05/27 02:54:23;;;;;;;0.50;0.40;;;8.00;99.90;;;;;;5035365;28;20207;-81
2023/05/27 02:56:50;;;;;;;0.50;0.50;;;8.10;99.90;;;;;;5035254;28;20230;-81
2023/05/27 02:59:17;;;;;;;0.50;0.40;;;8.00;99.90;;;;;;5035528;28;20709;-80
2023/05/27 03:01:44;;;;;;;0.50;0.50;;;8.00;99.90;;;;;;5035266;28;20215;-80
2023/05/27 03:04:10;;;;;;;0.50;0.40;;;7.90;99.90;;;;;;5035245;28;20799;-82
2023/05/27 03:06:40;;;;;;;28.88;12.18;;;7.90;99.90;;;;;;5034968;28;20222;-80
2023/05/27 03:09:07;;;;;;;0.50;0.45;;;7.90;99.90;;;;;;5035344;28;20226;-78
2023/05/27 03:11:34;;;;;;;0.50;0.40;;;7.90;99.90;;;;;;5035123;28;20199;-82
2023/05/27 03:14:01;;;;;;;0.50;0.40;;;7.90;99.90;;;;;;5035286;28;20219;-79
2023/05/27 03:16:28;;;;;;;0.50;0.50;;;7.90;99.90;;;;;;5035217;28;20229;-80
2023/05/27 03:18:55;;;;;;;0.50;0.40;;;7.90;99.90;;;;;;5034966;28;20697;-82
2023/05/27 03:21:22;;;;;;;0.50;0.40;;;8.00;99.90;;;;;;5034514;28;20233;-82
2023/05/27 03:23:50;;;;;;;0.50;0.40;;;7.90;99.90;;;;;;5034205;28;20215;-81
2023/05/27 03:26:17;;;;;;;0.50;0.40;;;7.90;99.90;;;;;;5034363;28;20286;-82
2023/05/27 03:28:44;;;;;;;0.73;0.73;;;7.90;99.90;;;;;;5034292;28;20286;-81
2023/05/27 03:31:12;;;;;;;0.50;0.50;;;7.90;99.90;;;;;;5034552;28;20195;-82
2023/05/27 03:33:39;;;;;;;0.50;0.40;;;7.90;99.90;;;;;;5033920;28;20694;-82
2023/05/27 03:36:06;;;;;;;0.50;0.40;;;7.90;99.90;;;;;;5033402;28;20230;-82
2023/05/27 03:38:33;;;;;;;0.50;0.50;;;7.90;99.90;;;;;;5033863;28;20205;-82
2023/05/27 03:41:01;;;;;;;0.50;0.40;;;7.90;99.90;;;;;;5033695;28;20266;-81
2023/05/27 03:43:28;;;;;;;0.70;0.70;;;8.00;99.90;;;;;;5033548;28;20223;-81
2023/05/27 03:45:55;;;;;;;2.25;2.15;;;8.00;99.90;;;;;;5034048;28;20195;-81
2023/05/27 03:48:22;;;;;;;0.50;0.40;;;8.00;99.90;;;;;;5033734;28;20203;-81
2023/05/27 03:50:49;;;;;;;0.50;0.40;;;8.00;99.90;;;;;;5033455;28;20202;-82
2023/05/27 03:53:15;;;;;;;0.50;0.40;;;8.00;99.90;;;;;;5032491;28;20211;-81
2023/05/27 03:55:42;;;;;;;0.50;0.40;;;8.00;99.90;;;;;;5034020;28;20207;-82
2023/05/27 03:58:13;;;;;;;0.50;0.40;;;8.00;99.90;;;;;;5033479;28;20202;-81
2023/05/27 04:00:41;;;;;;;0.50;0.40;;;8.00;99.90;;;;;;5034153;28;20237;-81
2023/05/27 04:03:08;;;;;;;0.82;0.82;;;8.00;99.90;;;;;;5032893;28;20223;-82
2023/05/27 04:05:35;;;;;;;0.60;0.60;;;8.00;99.90;;;;;;5033344;28;20199;-83
2023/05/27 04:08:01;;;;;;;0.50;0.40;;;8.10;99.90;;;;;;5033699;28;20746;-81
2023/05/27 04:10:28;;;;;;;0.50;0.50;;;8.10;99.90;;;;;;5033594;28;20700;-81
2023/05/27 04:12:55;;;;;;;0.50;0.40;;;8.20;99.90;;;;;;5033176;28;20215;-83
2023/05/27 04:15:23;;;;;;;0.50;0.40;;;8.20;99.90;;;;;;5033502;28;20294;-81
2023/05/27 04:17:50;;;;;;;0.50;0.40;;;8.10;99.90;;;;;;5033496;28;20287;-82
2023/05/27 04:20:17;;;;;;;0.50;0.40;;;8.10;99.90;;;;;;5033368;28;20218;-81
2023/05/27 04:22:44;;;;;;;0.50;0.40;;;8.10;99.90;;;;;;5033149;28;20273;-81
2023/05/27 04:25:11;;;;;;;0.50;0.40;;;8.10;99.90;;;;;;5025545;28;20676;-81
2023/05/27 04:27:38;;;;;;;0.50;0.40;;;8.20;99.90;;;;;;5033645;28;20203;-82
2023/05/27 04:30:06;;;;;;;0.50;0.50;;;8.30;99.90;;;;;;5033060;28;20288;-81
2023/05/27 04:32:37;;;;;;;0.50;0.50;;;8.40;99.90;;;;;;5032783;28;20583;-81
2023/05/27 04:35:05;;;;;;;0.73;0.73;;;8.40;99.90;;;;;;5032518;28;20203;-83
2023/05/27 04:37:32;;;;;;;0.50;0.40;;;8.40;99.90;;;;;;5033072;28;20513;-81
2023/05/27 04:39:59;;;;;;;1.58;0.73;;;8.50;99.90;;;;;;5032819;28;20200;-81
2023/05/27 04:42:26;;;;;;;0.50;0.50;;;8.50;99.90;;;;;;5032944;28;20597;-81
2023/05/27 04:44:52;;;;;;;0.50;0.40;;;8.60;99.90;;;;;;5032693;28;20285;-82
2023/05/27 04:47:20;;;;;;;2.78;1.00;;;8.60;99.90;;;;;;5032765;28;20199;-81
2023/05/27 04:49:49;;;;;;;0.50;0.40;;;8.70;99.90;;;;;;5033061;28;20199;-79
2023/05/27 04:52:17;;;;;;;0.50;0.40;;;8.80;99.90;;;;;;5033208;28;20191;-81
2023/05/27 04:54:43;;;;;;;2.75;1.35;;;8.80;99.90;;;;;;5032711;28;20203;-81
2023/05/27 04:57:10;;;;;;;0.80;0.80;;;8.80;99.90;;;;;;5033004;28;20198;-82
2023/05/27 04:59:58;;;;;;;0.50;0.40;;;8.80;99.90;;;;;;5033063;28;20207;-81
2023/05/27 05:02:33;;;;;;;1.20;1.20;;;8.90;99.90;;;;;;5026259;28;20223;-80
2023/05/27 05:05:02;;;;;;;0.50;0.50;;;9.00;99.90;;;;;;5036047;28;20199;-80
2023/05/27 05:07:28;;;;;;;0.95;0.95;;;9.00;99.90;;;;;;5036943;28;20199;-81
2023/05/27 05:09:55;;;;;;;0.50;0.40;;;9.10;99.90;;;;;;5037212;28;20203;-81
2023/05/27 05:12:22;;;;;;;0.50;0.40;;;9.20;99.90;;;;;;5036733;28;20219;-79
2023/05/27 05:14:49;;;;;;;0.65;0.60;;;9.20;99.90;;;;;;5036674;28;20195;-79
2023/05/27 05:17:16;;;;;;;0.60;0.60;;;9.30;99.90;;;;;;5036715;28;20705;-80
2023/05/27 05:19:43;;;;;;;0.63;0.60;;;9.40;99.90;;;;;;5036982;28;20298;-80
2023/05/27 05:22:12;;;;;;;1.30;1.20;;;9.40;99.90;;;;;;5035980;28;20195;-81
2023/05/27 05:24:39;;;;;;;6.88;1.08;;;9.50;99.90;;;;;;5036758;28;20257;-80
2023/05/27 05:27:07;;;;;;;0.50;0.40;;;9.60;99.90;;;;;;5036432;28;20728;-81
2023/05/27 05:29:33;;;;;;;1.27;1.00;;;9.70;99.90;;;;;;5036471;28;20261;-83
2023/05/27 05:32:00;;;;;;;0.50;0.50;;;9.80;99.90;;;;;;5036207;28;20203;-83
2023/05/27 05:34:27;;;;;;;0.50;0.40;;;9.80;99.90;;;;;;5036520;28;20569;-83
2023/05/27 05:36:54;;;;;;;0.50;0.50;;;9.80;99.90;;;;;;5036488;28;20282;-82
2023/05/27 05:39:22;;;;;;;0.50;0.50;;;9.90;99.90;;;;;;5036771;28;20701;-82
2023/05/27 05:41:49;;;;;;;0.50;0.40;;;9.90;99.90;;;;;;5036816;28;20570;-83
2023/05/27 05:44:17;;;;;;;0.50;0.40;;;10.00;99.90;;;;;;5027873;28;20679;-81
2023/05/27 05:46:43;;;;;;;0.50;0.40;;;10.10;99.90;;;;;;5036178;28;20205;-83
2023/05/27 05:49:10;;;;;;;0.50;0.50;;;10.20;99.90;;;;;;5036228;28;20209;-83
2023/05/27 05:51:37;;;;;;;0.50;0.40;;;10.30;99.90;;;;;;5036433;28;20578;-82
2023/05/27 05:54:04;;;;;;;0.50;0.40;;;10.40;99.90;;;;;;5035754;28;20298;-83
2023/05/27 05:56:33;;;;;;;9.98;1.40;;;10.60;99.90;;;;;;5036218;28;20205;-82
2023/05/27 05:59:00;;;;;;;0.52;0.45;;;10.70;99.90;;;;;;5036056;28;20203;-82
2023/05/27 06:01:27;;;;;;;3.67;3.47;;;10.80;99.90;;;;;;5036314;28;20203;-83
2023/05/27 06:03:54;;;;;;;1.45;0.70;;;10.90;99.90;;;;;;5035761;28;20223;-82
2023/05/27 06:06:21;;;;;;;0.50;0.40;;;11.00;99.90;;;;;;5035884;28;20201;-82
2023/05/27 06:08:48;;;;;;;0.70;0.70;;;11.10;99.90;;;;;;5035789;28;20290;-83
2023/05/27 06:11:15;;;;;;;0.50;0.50;;;11.40;99.90;;;;;;5035428;28;20196;-82
2023/05/27 06:13:43;;;;;;;0.50;0.40;;;12.20;99.90;;;;;;5036030;28;20219;-82
2023/05/27 06:16:10;;;;;;;0.50;0.40;;;13.40;99.90;;;;;;5034934;28;20199;-81
2023/05/27 06:18:37;;;;;;;0.50;0.40;;;14.60;99.90;;;;;;5036427;28;20541;-81
2023/05/27 06:21:04;;;;;;;0.50;0.37;;;15.80;99.90;;;;;;5036003;28;20532;-84
2023/05/27 06:23:31;;;;;;;0.50;0.40;;;16.80;99.90;;;;;;5035908;28;20482;-82
2023/05/27 06:25:57;;;;;;;0.60;0.50;;;17.50;99.90;;;;;;5035790;28;20819;-84
2023/05/27 06:28:25;;;;;;;0.60;0.57;;;18.00;99.90;;;;;;5035569;28;20529;-83
2023/05/27 06:30:53;;;;;;;0.60;0.40;;;18.30;99.90;;;;;;5035883;28;20477;-84
2023/05/27 06:33:20;;;;;;;0.50;0.40;;;18.50;99.90;;;;;;5027965;28;20458;-83
2023/05/27 06:35:47;;;;;;;0.50;0.40;;;19.50;99.90;;;;;;5036024;28;20444;-82
2023/05/27 06:38:14;;;;;;;0.50;0.40;;;20.50;99.60;;;;;;5035317;28;20557;-82
2023/05/27 06:40:41;;;;;;;0.50;0.30;;;21.50;94.90;;;;;;5035614;28;20442;-83
2023/05/27 06:43:08;;;;;;;0.60;0.50;;;22.00;92.40;;;;;;5035438;28;20489;-81
2023/05/27 06:45:34;;;;;;;0.50;0.30;;;22.60;85.40;;;;;;5035323;28;20489;-81
2023/05/27 06:48:03;;;;;;;0.50;0.33;;;22.80;80.60;;;;;;5035097;28;20478;-81
2023/05/27 06:50:29;;;;;;;0.60;0.60;;;23.10;81.30;;;;;;5034993;28;20529;-82
2023/05/27 06:52:56;;;;;;;0.50;0.30;;;23.20;78.60;;;;;;5036115;28;20911;-82
2023/05/27 06:55:23;;;;;;;0.50;0.30;;;23.40;75.80;;;;;;5035133;28;20466;-83
2023/05/27 06:57:50;;;;;;;0.53;0.43;;;23.70;75.90;;;;;;5035220;28;20533;-84
2023/05/27 07:00:17;;;;;;;3.80;1.43;;;23.90;73.80;;;;;;5034985;28;20885;-82
2023/05/27 07:02:44;;;;;;;0.50;0.30;;;23.80;74.30;;;;;;5035264;28;21016;-82
2023/05/27 07:05:12;;;;;;;0.60;0.57;;;24.40;74.80;;;;;;5034585;28;20450;-82
2023/05/27 07:07:39;;;;;;;0.70;0.70;;;24.80;70.70;;;;;;5035384;28;20509;-82
2023/05/27 07:10:07;;;;;;;0.87;0.87;;;24.70;69.10;;;;;;5034830;28;20518;-84
2023/05/27 07:12:34;;;;;;;0.50;0.30;;;24.70;69.10;;;;;;5035158;28;20468;-83
2023/05/27 07:15:01;;;;;;;0.50;0.40;;;24.60;68.90;;;;;;5035071;28;20446;-83
2023/05/27 07:17:28;;;;;;;0.50;0.50;;;24.60;68.60;;;;;;5035280;28;21123;-83
2023/05/27 07:19:55;;;;;;;0.50;0.40;;;25.20;68.50;;;;;;5034964;28;20477;-83
2023/05/27 07:22:23;;;;;;;0.50;0.40;;;26.00;66.20;;;;;;5035202;28;20546;-84
2023/05/27 07:24:50;;;;;;;0.60;0.40;;;25.80;65.00;;;;;;5035076;28;20473;-83
2023/05/27 07:27:17;;;;;;;0.50;0.30;;;26.00;65.00;;;;;;5034756;28;20517;-83
2023/05/27 07:29:44;;;;;;;0.50;0.40;;;26.30;64.00;;;;;;5034779;28;20474;-83
2023/05/27 07:32:11;;;;;;;1.60;1.50;;;25.80;63.60;;;;;;5034412;28;20493;-83
2023/05/27 07:34:38;;;;;;;0.50;0.30;;;25.90;63.40;;;;;;5034370;28;21013;-82
2023/05/27 07:37:05;;;;;;;5.33;2.00;;;25.40;63.60;;;;;;5034534;28;20542;-83
2023/05/27 07:39:33;;;;;;;2.50;0.67;;;25.70;63.80;;;;;;5034389;28;20446;-82
2023/05/27 07:42:00;;;;;;;2.77;1.77;;;25.90;64.10;;;;;;5034645;28;20442;-83
2023/05/27 07:44:27;;;;;;;0.50;0.30;;;26.00;63.80;;;;;;5034283;28;20478;-83
2023/05/27 07:46:54;;;;;;;0.70;0.70;;;26.10;64.60;;;;;;5034419;28;20484;-83
2023/05/27 07:49:22;;;;;;;0.50;0.30;;;26.60;61.70;;;;;;5034351;28;20442;-82
2023/05/27 07:51:48;;;;;;;0.50;0.30;;;26.50;62.20;;;;;;5035055;28;20890;-84
2023/05/27 07:54:15;;;;;;;0.50;0.30;;;27.40;62.10;;;;;;5034050;28;20550;-81
2023/05/27 07:56:43;;;;;;;0.50;0.30;;;28.10;59.50;;;;;;5034803;28;20442;-83
2023/05/27 07:59:10;;;;;;;0.50;0.40;;;28.50;61.50;;;;;;5034197;28;20953;-83
2023/05/27 08:01:37;;;;;;;0.50;0.37;;;28.90;59.90;;;;;;5034548;28;20514;-83
2023/05/27 08:04:04;;;;;;;0.60;0.60;;;29.80;58.20;;;;;;5034347;28;20473;-82
2023/05/27 08:06:31;;;;;;;0.50;0.33;;;30.30;57.50;;;;;;5034850;28;20520;-82
2023/05/27 08:08:57;;;;;;;0.50;0.50;;;30.80;55.50;;;;;;5034346;28;20440;-83
2023/05/27 08:11:25;;;;;;;0.50;0.30;;;31.30;53.80;;;;;;5034085;28;20506;-81
2023/05/27 08:13:53;;;;;;;0.50;0.37;;;31.40;52.70;;;;;;5033909;28;20465;-82
2023/05/27 08:16:20;;;;;;;0.50;0.30;;;31.00;52.80;;;;;;5034092;28;20442;-84
2023/05/27 08:18:47;;;;;;;0.50;0.30;;;30.90;53.20;;;;;;5034166;28;21125;-83
2023/05/27 08:21:14;;;;;;;0.50;0.30;;;31.60;54.60;;;;;;5034461;28;20455;-82
2023/05/27 08:23:41;;;;;;;0.50;0.30;;;31.90;54.20;;;;;;5033809;28;20482;-83
2023/05/27 08:26:08;;;;;;;0.50;0.33;;;32.70;51.70;;;;;;5034221;28;20470;-83
2023/05/27 08:28:36;;;;;;;0.50;0.30;;;32.90;52.70;;;;;;5035649;28;20449;-79
2023/05/27 08:31:05;;;;;;;1.33;1.23;;;32.30;50.60;;;;;;5034530;28;20442;-83
2023/05/27 08:33:32;;;;;;;0.50;0.30;;;32.60;50.30;;;;;;5034943;28;20561;-83
2023/05/27 08:35:59;;;;;;;0.50;0.30;;;32.70;50.40;;;;;;5035124;28;20483;-83
2023/05/27 08:38:26;;;;;;;0.50;0.30;;;32.20;51.30;;;;;;5025698;28;20537;-80
2023/05/27 08:40:54;;;;;;;0.50;0.30;;;32.50;52.20;;;;;;5034056;28;21000;-82
2023/05/27 08:43:22;;;;;;;0.50;0.30;;;33.00;50.20;;;;;;5032990;28;20478;-83
2023/05/27 08:45:49;;;;;;;0.50;0.30;;;33.40;49.50;;;;;;5033681;28;20452;-84
2023/05/27 08:48:18;;;;;;;0.50;0.30;;;33.20;50.00;;;;;;5033326;28;20826;-81
2023/05/27 08:50:45;;;;;;;0.50;0.30;;;33.60;49.00;;;;;;5033433;28;20445;-80
2023/05/27 08:53:12;;;;;;;0.50;0.30;;;34.00;49.10;;;;;;5033643;28;20469;-80
2023/05/27 08:55:42;;;;;;;0.80;0.70;;;34.80;49.60;;;;;;5033267;28;20834;-81
2023/05/27 08:58:10;;;;;;;0.50;0.40;;;35.00;46.60;;;;;;5033132;28;20442;-78
2023/05/27 09:00:37;;;;;;;16.47;1.33;;;34.50;47.20;;;;;;5033451;28;20452;-81
2023/05/27 09:03:04;;;;;;;0.47;0.30;;;34.20;48.70;;;;;;5033398;28;20474;-83
2023/05/27 09:05:33;;;;;;;0.53;0.53;;;34.20;48.50;;;;;;5033900;28;20473;-79
2023/05/27 09:08:00;;;;;;;0.50;0.30;;;34.20;46.30;;;;;;5033364;28;20446;-82
2023/05/27 09:10:36;;;;;;;0.40;0.30;;;34.10;50.50;;;;;;5032728;28;20524;-82
2023/05/27 09:13:03;;;;;;;0.50;0.30;;;34.20;48.20;;;;;;5032939;28;20560;-80
2023/05/27 09:15:31;;;;;;;0.40;0.30;;;34.70;46.10;;;;;;5033269;28;20814;-80
2023/05/27 09:17:58;;;;;;;0.50;0.40;;;34.80;46.90;;;;;;5034075;28;20557;-82
2023/05/27 09:20:26;;;;;;;0.60;0.60;;;35.20;46.00;;;;;;5032936;28;20884;-81
2023/05/27 09:22:58;;;;;;;0.50;0.50;;;34.50;46.80;;;;;;5033589;28;20466;-81
2023/05/27 09:25:25;;;;;;;1.07;0.93;;;34.10;48.50;;;;;;5033105;28;20485;-81
2023/05/27 09:27:52;;;;;;;0.50;0.40;;;34.60;45.90;;;;;;5032678;28;20834;-80
2023/05/27 09:30:20;;;;;;;0.50;0.43;;;34.40;46.50;;;;;;5033605;28;20450;-81
2023/05/27 09:32:48;;;;;;;0.50;0.40;;;34.80;46.80;;;;;;5033566;28;20469;-81
2023/05/27 09:35:17;;;;;;;0.40;0.30;;;35.30;46.00;;;;;;5033019;28;20456;-80
2023/05/27 09:37:45;;;;;;;0.40;0.30;;;35.10;46.40;;;;;;5033027;28;20464;-82
2023/05/27 09:40:15;;;;;;;0.40;0.30;;;35.40;45.80;;;;;;5032808;28;20489;-78
2023/05/27 09:42:43;;;;;;;0.40;0.30;;;35.40;44.90;;;;;;5032945;28;20466;-82
2023/05/27 09:45:13;;;;;;;0.47;0.30;;;35.50;46.00;;;;;;5032860;28;20477;-81
2023/05/27 09:47:41;;;;;;;0.60;0.60;;;35.90;46.20;;;;;;5033423;28;20481;-82
2023/05/27 09:50:10;;;;;;;0.50;0.50;;;36.30;44.40;;;;;;5033108;28;20446;-82
2023/05/27 09:52:39;;;;;;;0.40;0.30;;;36.10;44.30;;;;;;5036374;28;20462;-82
2023/05/27 09:55:07;;;;;;;0.40;0.30;;;35.60;44.00;;;;;;5036229;28;20524;-79
2023/05/27 09:57:36;;;;;;;0.40;0.30;;;35.60;43.50;;;;;;5037085;28;20514;-82
2023/05/27 10:00:10;;;;;;;0.40;0.30;;;35.40;44.70;;;;;;5036677;28;20449;-82
2023/05/27 10:02:38;;;;;;;0.40;0.30;;;35.80;43.10;;;;;;5029723;28;20465;-83
2023/05/27 10:05:07;;;;;;;0.50;0.30;;;35.10;43.40;;;;;;5036395;28;20480;-80
2023/05/27 10:07:37;;;;;;;0.50;0.40;;;34.70;42.20;;;;;;5029123;28;20876;-80
2023/05/27 10:10:06;;;;;;;0.50;0.30;;;33.80;43.30;;;;;;5036464;28;20450;-81
2023/05/27 10:12:35;;;;;;;2.93;1.73;;;33.20;43.30;;;;;;5036311;28;20467;-83
2023/05/27 10:15:02;;;;;;;7.27;1.63;;;33.10;43.30;;;;;;5036124;28;20481;-81
2023/05/27 10:17:29;;;;;;;0.50;0.30;;;32.50;45.70;;;;;;5036030;28;20445;-81
2023/05/27 10:19:57;;;;;;;0.50;0.40;;;33.20;47.00;;;;;;5036182;28;20446;-82
2023/05/27 10:22:24;;;;;;;0.60;0.57;;;33.90;45.70;;;;;;5036423;28;20461;-82
2023/05/27 10:24:53;;;;;;;0.50;0.30;;;34.80;43.70;;;;;;5036029;28;20470;-82
2023/05/27 10:27:21;;;;;;;0.47;0.40;;;34.90;45.80;;;;;;5035870;28;20450;-82
2023/05/27 10:29:59;;;;;;;0.40;0.30;;;35.20;44.30;;;;;;5036101;28;20531;-81
2023/05/27 10:32:26;;;;;;;0.40;0.30;;;35.40;42.50;;;;;;5035368;28;21012;-83
2023/05/27 10:34:55;;;;;;;0.40;0.30;;;34.90;42.60;;;;;;5035974;28;20561;-82
2023/05/27 10:37:23;;;;;;;0.50;0.30;;;34.80;43.60;;;;;;5036132;28;20446;-82
2023/05/27 10:39:56;;;;;;;0.40;0.30;;;34.90;44.00;;;;;;5035481;28;20504;-81
2023/05/27 10:42:24;;;;;;;0.40;0.30;;;34.70;42.90;;;;;;5035904;28;20477;-82
2023/05/27 10:45:05;;;;;;;0.40;0.30;;;34.80;44.20;;;;;;5035638;28;20501;-83
2023/05/27 10:47:36;;;;;;;0.50;0.40;;;34.60;41.80;;;;;;5035486;28;20441;-81
2023/05/27 10:50:12;;;;;;;0.40;0.30;;;34.30;43.50;;;;;;5035572;28;20956;-82
2023/05/27 10:52:40;;;;;;;0.50;0.40;;;34.10;44.30;;;;;;5028009;28;20460;-81
2023/05/27 10:55:08;;;;;;;0.40;0.30;;;34.40;43.80;;;;;;5035703;28;20537;-82
2023/05/27 10:57:35;;;;;;;0.40;0.30;;;34.20;41.50;;;;;;5027805;28;20444;-81
2023/05/27 11:00:08;;;;;;;0.50;0.40;;;33.70;43.20;;;;;;5035757;28;20452;-82
2023/05/27 11:02:37;;;;;;;0.50;0.30;;;33.80;42.00;;;;;;5025880;28;21043;-81
2023/05/27 11:05:10;;;;;;;0.40;0.30;;;33.80;42.70;;;;;;5034573;28;21229;-80
2023/05/27 11:07:39;;;;;;;0.50;0.30;;;34.00;44.70;;;;;;5024253;28;20873;-82
2023/05/27 11:10:08;;;;;;;2.30;1.40;;;34.40;43.70;;;;;;5027834;28;20979;-81
2023/05/27 11:12:35;;;;;;;0.63;0.37;;;34.60;41.50;;;;;;5027354;28;20521;-81
2023/05/27 11:15:03;;;;;;;0.60;0.60;;;34.20;40.90;;;;;;5034731;28;20529;-80
2023/05/27 11:17:30;;;;;;;0.50;0.40;;;33.90;42.20;;;;;;5035492;28;20441;-82
2023/05/27 11:19:58;;;;;;;0.40;0.30;;;33.70;43.30;;;;;;5035331;28;20438;-82
2023/05/27 11:22:25;;;;;;;0.40;0.30;;;33.80;40.50;;;;;;5032877;28;20557;-81
2023/05/27 11:24:59;;;;;;;0.40;0.30;;;33.80;42.40;;;;;;5034524;28;20478;-80
2023/05/27 11:27:33;;;;;;;0.40;0.30;;;33.40;42.40;;;;;;5034510;28;20444;-80
2023/05/27 11:30:03;;;;;;;0.40;0.30;;;33.50;42.20;;;;;;5034920;28;20971;-81
2023/05/27 11:32:35;;;;;;;0.40;0.30;;;33.80;42.30;;;;;;5035051;28;20498;-80
2023/05/27 11:35:02;;;;;;;0.60;0.40;;;34.30;40.70;;;;;;5035197;28;20438;-82
2023/05/27 11:37:32;;;;;;;0.40;0.30;;;34.30;40.30;;;;;;5035653;28;21129;-79
2023/05/27 11:39:59;;;;;;;0.50;0.40;;;34.10;41.30;;;;;;5034996;28;20442;-81
2023/05/27 11:42:26;;;;;;;14.93;1.27;;;34.50;42.20;;;;;;5034527;28;20505;-80
2023/05/27 11:44:53;;;;;;;0.40;0.30;;;34.40;42.20;;;;;;5036495;28;20542;-80
2023/05/27 11:47:20;;;;;;;0.40;0.40;;;34.20;41.30;;;;;;5033157;28;20457;-80
2023/05/27 11:49:50;;;;;;;0.50;0.30;;;34.10;42.50;;;;;;5035577;28;20533;-79
2023/05/27 11:52:16;;;;;;;0.50;0.30;;;33.60;40.50;;;;;;5035145;28;20438;-81
2023/05/27 11:54:44;;;;;;;0.50;0.40;;;33.30;40.30;;;;;;5035735;28;20441;-79
2023/05/27 11:57:12;;;;;;;0.50;0.30;;;33.20;41.20;;;;;;5036198;28;20500;-81
2023/05/27 11:59:39;;;;;;;0.50;0.30;;;32.90;41.60;;;;;;5026495;28;20526;-82
2023/05/27 12:02:05;;;;;;;0.50;0.30;;;32.90;40.20;;;;;;5035254;28;20438;-81
2023/05/27 12:04:32;;;;;;;0.70;0.40;;;33.00;41.40;;;;;;5035315;28;21017;-81
2023/05/27 12:07:02;;;;;;;0.50;0.30;;;32.70;40.20;;;;;;5034213;28;20448;-79
2023/05/27 12:09:29;;;;;;;0.80;0.40;;;33.00;45.40;;;;;;5033865;28;20446;-82
2023/05/27 12:11:56;;;;;;;2.27;0.47;;;33.10;43.40;;;;;;5034724;28;20900;-81
2023/05/27 12:14:23;;;;;;;0.50;0.30;;;32.80;42.50;;;;;;5032991;28;20462;-81
2023/05/27 12:16:50;;;;;;;0.50;0.30;;;32.60;44.70;;;;;;5034279;28;20438;-81
2023/05/27 12:19:17;;;;;;;0.50;0.30;;;33.00;46.70;;;;;;5033895;28;20446;-81
2023/05/27 12:21:44;;;;;;;0.50;0.30;;;33.40;45.90;;;;;;5034624;28;20884;-81
2023/05/27 12:24:12;;;;;;;0.40;0.30;;;34.00;44.70;;;;;;5033877;28;20553;-82
2023/05/27 12:26:40;;;;;;;0.70;0.60;;;33.90;44.60;;;;;;5025345;28;20552;-82
2023/05/27 12:29:07;;;;;;;1.07;1.03;;;34.30;42.80;;;;;;5033260;28;20473;-81
2023/05/27 12:31:34;;;;;;;0.40;0.40;;;34.00;42.50;;;;;;5033430;28;20529;-81
2023/05/27 12:34:02;;;;;;;0.50;0.30;;;34.40;44.80;;;;;;5034111;28;20464;-80
2023/05/27 12:36:29;;;;;;;0.40;0.30;;;34.80;43.50;;;;;;5033569;28;20922;-83
2023/05/27 12:38:56;;;;;;;0.73;0.40;;;35.50;43.10;;;;;;5034339;28;20960;-81
2023/05/27 12:41:25;;;;;;;0.50;0.30;;;35.40;43.20;;;;;;5033746;28;20564;-82
2023/05/27 12:43:52;;;;;;;0.60;0.60;;;35.60;44.40;;;;;;5033066;28;20470;-82
2023/05/27 12:46:19;;;;;;;0.50;0.40;;;35.60;41.60;;;;;;5034185;28;20902;-81
2023/05/27 12:48:46;;;;;;;0.40;0.30;;;35.50;42.60;;;;;;5033951;28;20850;-80
2023/05/27 12:51:12;;;;;;;0.40;0.30;;;35.30;40.60;;;;;;5034375;28;20826;-80
2023/05/27 12:53:39;;;;;;;0.40;0.30;;;34.60;38.60;;;;;;5034502;28;20458;-81